Zwettl, Austria

2:16 AM CEST on August 29, 2015 (GMT +0200)
L75 | Change Station
CLOSE
Current Station
Personal Weather Station
Location: Gemeinde Pölla,
Elevation: 1833 ft
Nearby Weather Stations

Elev 1833 ft 48.64 °N, 15.28 °E | Updated 7 seconds ago

Clear
Clear
60.4 °F
Feels Like 60.4 °F
N
-
Wind Variable Wind from North

Today
High -- | Low -- °F
--% Chance of Precip.
Yesterday
High -- | Low -- °F
Precip. -- in
6:11 AM 7:48 PM
Waxing Gibbous, 99% visible
Pressure 30.18 in
Visibility -9999.0 miles
Clouds
Dew Point 58 °F
Humidity 90%
Rainfall -999.00 in
Snow Depth Not available.
UV Not available.
Pollen Not available.
Air Quality Not available.
Flu Activity Not available.
METAR LKNA 290000Z 34007KT CAVOK 22/17 Q1022 RMK BLU

More Conditions Fewer Conditions

Pressure 30.18 in
Visibility -9999.0 miles
Clouds
Dew Point 58 °F
Humidity 90%
Rainfall -999.00 in
Snow Depth Not available.
UV Not available.
Pollen Not available.
Air Quality Not available.
Flu Activity Not available.
METAR LKNA 290000Z 34007KT CAVOK 22/17 Q1022 RMK BLU

More Conditions Fewer Conditions

10-Day Weather Forecast

Almanac

Astronomy

Aug. 29, 2015 Rise Set
Actual Time 6:11 AM CEST 7:48 PM CEST
Civil Twilight 5:38 AM CEST 8:21 PM CEST
Nautical Twilight 4:58 AM CEST 9:01 PM CEST
Astronomical Twilight 4:13 AM CEST 9:44 PM CEST
Moon 7:29 PM CEST 5:35 AM CEST
Length of Visible Light 14h 42m
Length of Day
13h 36m
Tomorrow will be 3m 24s shorter.
Waxing Gibbous, 99% of the Moon is Illuminated
Aug 28
Waxing Gibbous
Aug 29
Full
Sep 5
Last Quarter
Sep 13
New
Sep 21
First Quarter

Yesterday's Extremes

Country Highs Country Lows

Community

WunderPhotos

Upload Photos

1,850,543 photos uploaded!

Nearby

Snow Depth

Not available.

Earthquake Activity

City Distance Mag. Time & Date
No recent earthquake activity has been reported nearby.
Minimum magnitude displayed is 2.5.

Coastal Water Temperatures

Place Temperature
No Stations Reporting

Nearby Weather Stations